Time;durP1;ratioP1;P1;durP2;ratioP2;P2;SDS_P1;SDS_P2;PMS_P1;PMS_P2;Temp;Humidity;BMP_temperature;BMP_pressure;BME280_temperature;BME280_humidity;BME280_pressure;Samples;Min_cycle;Max_cycle;Signal;HPM_P1;HPM_P2
2023/09/19 00:02:01;;;;;;;1.85;0.70;;;;;;;;;;5091841;28;20290;-73
2023/09/19 00:04:32;;;;;;;0.80;0.75;;;;;;;;;;5091684;28;20286;-73
2023/09/19 00:06:58;;;;;;;2.85;0.70;;;;;;;;;;5091503;28;20211;-73
2023/09/19 00:09:27;;;;;;;2.15;0.70;;;;;;;;;;5091575;28;20196;-73
2023/09/19 00:11:53;;;;;;;1.80;0.80;;;;;;;;;;5090461;28;20184;-73
2023/09/19 00:14:19;;;;;;;0.60;0.60;;;;;;;;;;5091424;28;20204;-73
2023/09/19 00:16:46;;;;;;;1.02;0.60;;;;;;;;;;5091378;28;20514;-73
2023/09/19 00:19:14;;;;;;;1.13;0.60;;;;;;;;;;5091743;28;20294;-73
2023/09/19 00:21:41;;;;;;;3.15;0.52;;;;;;;;;;5091229;28;20587;-73
2023/09/19 00:24:08;;;;;;;0.85;0.60;;;;;;;;;;5091278;28;20212;-73
2023/09/19 00:26:35;;;;;;;0.65;0.60;;;;;;;;;;5090881;28;20222;-73
2023/09/19 00:29:05;;;;;;;0.70;0.70;;;;;;;;;;5093230;28;20239;-73
2023/09/19 00:31:32;;;;;;;0.50;0.50;;;;;;;;;;5095302;28;20202;-73
2023/09/19 00:34:02;;;;;;;0.60;0.60;;;;;;;;;;5095131;28;20208;-73
2023/09/19 00:36:29;;;;;;;0.65;0.65;;;;;;;;;;5094893;28;20219;-73
2023/09/19 00:38:56;;;;;;;1.98;0.77;;;;;;;;;;5094922;28;20207;-73
2023/09/19 00:41:24;;;;;;;0.88;0.88;;;;;;;;;;5095183;28;20223;-73
2023/09/19 00:43:51;;;;;;;2.08;0.57;;;;;;;;;;5094970;28;20303;-73
2023/09/19 00:46:17;;;;;;;2.83;0.50;;;;;;;;;;5094828;28;20662;-73
2023/09/19 00:48:44;;;;;;;4.65;0.60;;;;;;;;;;5094754;28;20207;-73
2023/09/19 00:51:11;;;;;;;2.30;0.70;;;;;;;;;;5094631;28;20570;-73
2023/09/19 00:53:38;;;;;;;1.65;0.80;;;;;;;;;;5094655;28;20579;-73
2023/09/19 00:56:07;;;;;;;2.33;0.77;;;;;;;;;;5094748;28;20222;-73
2023/09/19 00:58:35;;;;;;;0.60;0.60;;;;;;;;;;5094741;28;20283;-73
2023/09/19 01:01:02;;;;;;;0.50;0.50;;;;;;;;;;5094581;28;20215;-73
2023/09/19 01:03:29;;;;;;;1.10;0.80;;;;;;;;;;5094551;28;20277;-73
2023/09/19 01:05:55;;;;;;;0.88;0.75;;;;;;;;;;5094274;28;20703;-73
2023/09/19 01:08:21;;;;;;;0.63;0.63;;;;;;;;;;5094499;28;20204;-73
2023/09/19 01:10:52;;;;;;;1.73;0.57;;;;;;;;;;5094605;28;20196;-73
2023/09/19 01:16:34;;;;;;;2.38;0.73;;;;;;;;;;5093458;28;20264;-73
2023/09/19 01:19:07;;;;;;;1.70;0.60;;;;;;;;;;5094333;28;20204;-74
2023/09/19 01:21:38;;;;;;;0.75;0.55;;;;;;;;;;5094258;28;20590;-73
2023/09/19 01:24:20;;;;;;;2.83;0.73;;;;;;;;;;5094237;28;20207;-73
2023/09/19 01:27:02;;;;;;;0.60;0.60;;;;;;;;;;5093670;28;20226;-73
2023/09/19 01:29:36;;;;;;;0.60;0.60;;;;;;;;;;5094033;28;20218;-73
2023/09/19 01:32:04;;;;;;;0.40;0.40;;;;;;;;;;5094151;28;20195;-73
2023/09/19 01:34:45;;;;;;;2.92;0.60;;;;;;;;;;5093957;28;20203;-73
2023/09/19 01:37:11;;;;;;;0.40;0.40;;;;;;;;;;5093577;28;20668;-73
2023/09/19 01:39:38;;;;;;;0.70;0.70;;;;;;;;;;5093597;28;20246;-73
2023/09/19 01:42:06;;;;;;;0.60;0.60;;;;;;;;;;5093863;28;20223;-73
2023/09/19 01:44:38;;;;;;;0.40;0.40;;;;;;;;;;5093877;28;20203;-73
2023/09/19 01:47:14;;;;;;;0.52;0.40;;;;;;;;;;5093578;28;20202;-73
2023/09/19 01:49:46;;;;;;;1.33;0.50;;;;;;;;;;5093694;28;20199;-73
2023/09/19 01:52:16;;;;;;;0.80;0.45;;;;;;;;;;5094186;28;20200;-73
2023/09/19 01:54:46;;;;;;;2.30;0.60;;;;;;;;;;5093764;28;20654;-73
2023/09/19 01:57:16;;;;;;;0.55;0.50;;;;;;;;;;5093279;28;20210;-73
2023/09/19 01:59:45;;;;;;;0.60;0.60;;;;;;;;;;5093521;28;20268;-73
2023/09/19 02:02:14;;;;;;;1.10;0.60;;;;;;;;;;5093295;28;20637;-73
2023/09/19 02:04:41;;;;;;;0.45;0.40;;;;;;;;;;5093477;28;20207;-73
2023/09/19 02:07:08;;;;;;;1.50;0.65;;;;;;;;;;5093191;28;20203;-73
2023/09/19 02:09:35;;;;;;;1.45;0.50;;;;;;;;;;5093320;28;20231;-73
2023/09/19 02:12:01;;;;;;;0.60;0.60;;;;;;;;;;5093425;28;20199;-73
2023/09/19 02:14:29;;;;;;;1.23;0.50;;;;;;;;;;5093083;28;20564;-73
2023/09/19 02:16:56;;;;;;;1.58;0.50;;;;;;;;;;5092973;28;20219;-73
2023/09/19 02:19:23;;;;;;;0.68;0.57;;;;;;;;;;5093391;28;20333;-73
2023/09/19 02:21:49;;;;;;;0.60;0.50;;;;;;;;;;5093205;28;20219;-73
2023/09/19 02:24:16;;;;;;;0.70;0.57;;;;;;;;;;5093149;28;20656;-73
2023/09/19 02:26:42;;;;;;;0.60;0.60;;;;;;;;;;5092735;28;20262;-73
2023/09/19 02:29:12;;;;;;;0.60;0.60;;;;;;;;;;5092917;28;20242;-73
2023/09/19 02:31:39;;;;;;;0.75;0.40;;;;;;;;;;5093027;28;20245;-73
2023/09/19 02:34:06;;;;;;;0.50;0.50;;;;;;;;;;5093068;28;20228;-73
2023/09/19 02:36:34;;;;;;;1.75;0.60;;;;;;;;;;5092575;28;20311;-73
2023/09/19 02:39:00;;;;;;;0.65;0.50;;;;;;;;;;5092630;28;20200;-73
2023/09/19 02:41:29;;;;;;;0.70;0.70;;;;;;;;;;5092462;28;20216;-73
2023/09/19 02:43:55;;;;;;;2.53;0.63;;;;;;;;;;5092652;28;20625;-73
2023/09/19 02:46:22;;;;;;;3.15;0.60;;;;;;;;;;5092120;28;20220;-73
2023/09/19 02:48:48;;;;;;;0.52;0.52;;;;;;;;;;5092715;28;20204;-73
2023/09/19 02:51:14;;;;;;;0.63;0.63;;;;;;;;;;5091810;28;20200;-73
2023/09/19 02:53:42;;;;;;;1.88;0.55;;;;;;;;;;5092446;28;20295;-73
2023/09/19 02:56:09;;;;;;;3.08;0.70;;;;;;;;;;5092197;28;20245;-73
2023/09/19 02:58:36;;;;;;;1.67;0.70;;;;;;;;;;5092548;28;20250;-73
2023/09/19 03:01:08;;;;;;;0.60;0.60;;;;;;;;;;5092204;28;20593;-73
2023/09/19 03:03:35;;;;;;;0.55;0.55;;;;;;;;;;5092259;28;20549;-73
2023/09/19 03:06:03;;;;;;;0.93;0.93;;;;;;;;;;5092248;28;20222;-73
2023/09/19 03:08:30;;;;;;;0.55;0.55;;;;;;;;;;5092002;28;20298;-73
2023/09/19 03:10:57;;;;;;;0.77;0.75;;;;;;;;;;5092079;28;20206;-73
2023/09/19 03:13:24;;;;;;;0.70;0.63;;;;;;;;;;5092531;28;20203;-73
2023/09/19 03:15:50;;;;;;;1.52;0.82;;;;;;;;;;5092193;28;20314;-73
2023/09/19 03:18:16;;;;;;;2.45;0.75;;;;;;;;;;5091976;28;20207;-73
2023/09/19 03:20:43;;;;;;;0.70;0.70;;;;;;;;;;5091943;28;20223;-73
2023/09/19 03:23:10;;;;;;;0.93;0.73;;;;;;;;;;5091877;28;20214;-73
2023/09/19 03:25:36;;;;;;;1.08;0.85;;;;;;;;;;5091922;28;20223;-73
2023/09/19 03:28:05;;;;;;;1.58;1.20;;;;;;;;;;5091762;28;20203;-73
2023/09/19 03:30:33;;;;;;;0.77;0.77;;;;;;;;;;5092079;28;20205;-73
2023/09/19 03:32:59;;;;;;;0.73;0.70;;;;;;;;;;5091873;28;20568;-73
2023/09/19 03:35:26;;;;;;;1.00;0.60;;;;;;;;;;5091866;28;20220;-73
2023/09/19 03:37:53;;;;;;;2.33;0.80;;;;;;;;;;5091500;28;20200;-73
2023/09/19 03:40:21;;;;;;;0.98;0.60;;;;;;;;;;5091931;28;20687;-73
2023/09/19 03:42:48;;;;;;;1.17;0.70;;;;;;;;;;5091763;28;20230;-73
2023/09/19 03:45:16;;;;;;;1.30;0.52;;;;;;;;;;5092008;28;20238;-73
2023/09/19 03:47:42;;;;;;;0.85;0.80;;;;;;;;;;5091441;28;20203;-73
2023/09/19 03:50:10;;;;;;;1.00;1.00;;;;;;;;;;5091710;28;20200;-73
2023/09/19 03:52:37;;;;;;;0.70;0.70;;;;;;;;;;5091514;28;20200;-73
2023/09/19 03:55:04;;;;;;;0.70;0.70;;;;;;;;;;5091447;28;20703;-73
2023/09/19 03:57:30;;;;;;;0.95;0.70;;;;;;;;;;5091484;28;20207;-73
2023/09/19 03:59:57;;;;;;;1.45;0.70;;;;;;;;;;5091581;28;20200;-73
2023/09/19 04:02:24;;;;;;;0.88;0.68;;;;;;;;;;5092381;28;20219;-73
2023/09/19 04:04:51;;;;;;;1.48;0.70;;;;;;;;;;5095456;28;20200;-73
2023/09/19 04:07:18;;;;;;;0.75;0.70;;;;;;;;;;5095776;28;20207;-73
2023/09/19 04:09:45;;;;;;;0.80;0.80;;;;;;;;;;5095721;28;20199;-73
2023/09/19 04:12:11;;;;;;;2.67;1.00;;;;;;;;;;5095661;28;20203;-73
2023/09/19 04:14:38;;;;;;;2.25;0.73;;;;;;;;;;5095444;28;20231;-73
2023/09/19 04:17:05;;;;;;;2.05;0.80;;;;;;;;;;5095775;28;20237;-73
2023/09/19 04:19:32;;;;;;;1.75;0.55;;;;;;;;;;5095430;28;20294;-74
2023/09/19 04:21:59;;;;;;;0.93;0.93;;;;;;;;;;5095644;28;20576;-73
2023/09/19 04:24:25;;;;;;;2.05;0.98;;;;;;;;;;5095260;28;20664;-73
2023/09/19 04:26:52;;;;;;;2.20;1.00;;;;;;;;;;5094940;28;20596;-74
2023/09/19 04:29:19;;;;;;;0.95;0.90;;;;;;;;;;5095202;28;20538;-73
2023/09/19 04:31:45;;;;;;;1.95;0.98;;;;;;;;;;5095175;28;20204;-73
2023/09/19 04:34:14;;;;;;;1.85;0.80;;;;;;;;;;5095143;28;20203;-73
2023/09/19 04:36:43;;;;;;;2.95;1.00;;;;;;;;;;5094974;28;20231;-73
2023/09/19 04:39:10;;;;;;;2.60;0.80;;;;;;;;;;5095249;28;20203;-73
2023/09/19 04:41:38;;;;;;;0.73;0.73;;;;;;;;;;5095150;28;20227;-73
2023/09/19 04:44:05;;;;;;;1.17;1.00;;;;;;;;;;5095185;28;20196;-69
2023/09/19 04:46:31;;;;;;;1.50;0.93;;;;;;;;;;5094436;28;20254;-69
2023/09/19 04:48:58;;;;;;;0.90;0.90;;;;;;;;;;5095092;28;20630;-69
2023/09/19 04:51:25;;;;;;;0.80;0.80;;;;;;;;;;5094972;28;20199;-69
2023/09/19 04:53:53;;;;;;;1.85;0.82;;;;;;;;;;5094880;28;20403;-69
2023/09/19 04:56:20;;;;;;;1.67;0.75;;;;;;;;;;5094507;28;20223;-69
2023/09/19 04:58:47;;;;;;;4.15;0.80;;;;;;;;;;5094703;28;20207;-69
2023/09/19 05:01:15;;;;;;;0.77;0.77;;;;;;;;;;5094422;28;20204;-69
2023/09/19 05:03:42;;;;;;;1.00;0.90;;;;;;;;;;5094823;28;20245;-69
2023/09/19 05:06:08;;;;;;;1.85;0.88;;;;;;;;;;5094522;28;20216;-69
2023/09/19 05:08:34;;;;;;;1.08;0.80;;;;;;;;;;5094555;28;20203;-69
2023/09/19 05:11:03;;;;;;;0.73;0.73;;;;;;;;;;5094602;28;20489;-69
2023/09/19 05:13:31;;;;;;;1.00;0.95;;;;;;;;;;5094054;28;20200;-69
2023/09/19 05:16:01;;;;;;;0.82;0.82;;;;;;;;;;5093630;28;20251;-69
2023/09/19 05:18:27;;;;;;;0.80;0.80;;;;;;;;;;5094190;28;20291;-69
2023/09/19 05:20:54;;;;;;;0.75;0.73;;;;;;;;;;5094294;28;20586;-69
2023/09/19 05:23:20;;;;;;;1.05;1.00;;;;;;;;;;5094145;28;20263;-69
2023/09/19 05:25:47;;;;;;;1.70;1.20;;;;;;;;;;5093951;28;20226;-69
2023/09/19 05:28:15;;;;;;;1.20;1.10;;;;;;;;;;5093717;28;20214;-69
2023/09/19 05:30:43;;;;;;;3.13;1.00;;;;;;;;;;5094006;28;20577;-69
2023/09/19 05:33:09;;;;;;;1.10;1.10;;;;;;;;;;5094066;28;20196;-69
2023/09/19 05:35:37;;;;;;;2.28;1.00;;;;;;;;;;5094520;28;20306;-69
2023/09/19 05:38:05;;;;;;;1.13;1.13;;;;;;;;;;5093975;28;20203;-69
2023/09/19 05:40:31;;;;;;;2.03;0.95;;;;;;;;;;5093920;28;20211;-70
2023/09/19 05:42:58;;;;;;;3.05;1.10;;;;;;;;;;5093709;28;20539;-70
2023/09/19 05:45:25;;;;;;;2.10;0.90;;;;;;;;;;5093818;28;20254;-70
2023/09/19 05:47:55;;;;;;;1.00;0.90;;;;;;;;;;5093451;28;20536;-70
2023/09/19 05:50:22;;;;;;;0.75;0.75;;;;;;;;;;5093701;28;20203;-70
2023/09/19 05:52:52;;;;;;;0.80;0.80;;;;;;;;;;5093548;28;20284;-70
2023/09/19 05:55:18;;;;;;;1.38;1.00;;;;;;;;;;5093492;28;20216;-70
2023/09/19 05:57:49;;;;;;;0.88;0.88;;;;;;;;;;5093624;28;20209;-70
2023/09/19 06:00:18;;;;;;;2.30;0.90;;;;;;;;;;5093853;28;20215;-70
2023/09/19 06:02:46;;;;;;;1.27;1.17;;;;;;;;;;5093545;28;20208;-70
2023/09/19 06:05:12;;;;;;;3.30;1.02;;;;;;;;;;5093214;28;20220;-70
2023/09/19 06:07:38;;;;;;;2.13;1.27;;;;;;;;;;5093465;28;20204;-70
2023/09/19 06:10:06;;;;;;;1.00;1.00;;;;;;;;;;5093442;28;20212;-70
2023/09/19 06:12:37;;;;;;;1.48;1.30;;;;;;;;;;5093125;28;20220;-70
2023/09/19 06:15:03;;;;;;;1.10;1.10;;;;;;;;;;5093264;28;20251;-69
2023/09/19 06:17:31;;;;;;;2.42;1.20;;;;;;;;;;5092954;28;20200;-70
2023/09/19 06:19:59;;;;;;;1.75;1.23;;;;;;;;;;5093153;28;20202;-70
2023/09/19 06:22:25;;;;;;;2.60;1.00;;;;;;;;;;5089875;28;20660;-69
2023/09/19 06:24:51;;;;;;;2.90;1.20;;;;;;;;;;5075891;28;20236;-70
2023/09/19 06:27:18;;;;;;;1.95;1.10;;;;;;;;;;5086884;28;20212;-72
2023/09/19 06:29:44;;;;;;;1.65;1.10;;;;;;;;;;5086429;28;20621;-71
2023/09/19 06:32:11;;;;;;;1.48;1.20;;;;;;;;;;5086976;28;20224;-70
2023/09/19 06:34:38;;;;;;;1.63;1.15;;;;;;;;;;5087059;28;20265;-72
2023/09/19 06:37:06;;;;;;;2.78;1.00;;;;;;;;;;5086632;28;20265;-69
2023/09/19 06:39:32;;;;;;;3.33;1.35;;;;;;;;;;5086888;28;20213;-69
2023/09/19 06:42:01;;;;;;;1.30;1.17;;;;;;;;;;5084345;28;20207;-71
2023/09/19 06:44:29;;;;;;;1.30;1.20;;;;;;;;;;5082755;28;20686;-70
2023/09/19 06:46:55;;;;;;;1.35;0.90;;;;;;;;;;5082724;28;20607;-69
2023/09/19 06:49:22;;;;;;;1.42;0.90;;;;;;;;;;5083307;28;20215;-69
2023/09/19 06:51:49;;;;;;;1.95;1.05;;;;;;;;;;5083329;28;20215;-69
2023/09/19 06:54:17;;;;;;;2.67;1.23;;;;;;;;;;5084345;28;20208;-69
2023/09/19 06:56:44;;;;;;;5.93;1.40;;;;;;;;;;5083281;28;20224;-69
2023/09/19 06:59:14;;;;;;;1.25;1.13;;;;;;;;;;5082963;28;20203;-69
2023/09/19 07:01:41;;;;;;;1.85;1.30;;;;;;;;;;5083590;28;20203;-68
2023/09/19 07:04:07;;;;;;;1.70;1.48;;;;;;;;;;5083000;28;20200;-68
2023/09/19 07:06:34;;;;;;;3.50;1.60;;;;;;;;;;5083297;28;20215;-70
2023/09/19 07:09:00;;;;;;;2.47;1.55;;;;;;;;;;5077808;28;20230;-70
2023/09/19 07:11:30;;;;;;;1.17;1.08;;;;;;;;;;5082887;28;20219;-71
2023/09/19 07:13:56;;;;;;;1.33;1.23;;;;;;;;;;5082895;28;20306;-69
2023/09/19 07:16:29;;;;;;;1.67;1.25;;;;;;;;;;5083150;28;20219;-70
2023/09/19 07:18:56;;;;;;;2.05;1.00;;;;;;;;;;5083066;28;20200;-69
2023/09/19 07:21:22;;;;;;;1.23;1.15;;;;;;;;;;5083524;28;20208;-70
2023/09/19 07:23:49;;;;;;;1.77;1.20;;;;;;;;;;5083230;28;20490;-68
2023/09/19 07:26:15;;;;;;;1.20;1.02;;;;;;;;;;5082745;28;20335;-69
2023/09/19 07:28:43;;;;;;;1.35;0.80;;;;;;;;;;5082410;28;20215;-68
2023/09/19 07:31:10;;;;;;;2.85;1.10;;;;;;;;;;5082672;28;20207;-68
2023/09/19 07:33:36;;;;;;;2.60;0.90;;;;;;;;;;5082480;28;20725;-69
2023/09/19 07:36:03;;;;;;;1.92;1.10;;;;;;;;;;5083133;28;20242;-68
2023/09/19 07:38:29;;;;;;;2.10;1.02;;;;;;;;;;5082491;28;20680;-69
2023/09/19 07:40:59;;;;;;;1.45;0.93;;;;;;;;;;5082392;28;20657;-70
2023/09/19 07:43:26;;;;;;;1.67;1.02;;;;;;;;;;5078611;28;20195;-69
2023/09/19 07:45:54;;;;;;;2.05;1.13;;;;;;;;;;5082841;28;20305;-68
2023/09/19 07:48:20;;;;;;;1.40;1.30;;;;;;;;;;5082349;28;20212;-68
2023/09/19 07:50:46;;;;;;;1.30;1.00;;;;;;;;;;5082419;28;20211;-70
2023/09/19 07:53:13;;;;;;;1.42;1.00;;;;;;;;;;5083447;28;20255;-69
2023/09/19 07:55:40;;;;;;;1.42;1.00;;;;;;;;;;5082175;28;20314;-68
2023/09/19 07:58:07;;;;;;;1.20;0.95;;;;;;;;;;5082332;28;20272;-70
2023/09/19 08:00:34;;;;;;;0.82;0.82;;;;;;;;;;5082640;28;20211;-68
2023/09/19 08:03:03;;;;;;;1.02;1.00;;;;;;;;;;5082115;28;20214;-69
2023/09/19 08:05:30;;;;;;;4.75;0.93;;;;;;;;;;5082733;28;20228;-70
2023/09/19 08:07:57;;;;;;;0.88;0.88;;;;;;;;;;5082314;28;20618;-70
2023/09/19 08:10:27;;;;;;;1.92;1.00;;;;;;;;;;5082610;28;20203;-68
2023/09/19 08:12:57;;;;;;;1.15;0.80;;;;;;;;;;5082136;28;20335;-68
2023/09/19 08:15:24;;;;;;;1.10;1.00;;;;;;;;;;5082940;28;20277;-68
2023/09/19 08:17:50;;;;;;;1.65;0.90;;;;;;;;;;5082561;28;20204;-68
2023/09/19 08:20:18;;;;;;;0.80;0.80;;;;;;;;;;5083076;28;20292;-68
2023/09/19 08:22:47;;;;;;;2.03;0.88;;;;;;;;;;5082708;28;20211;-68
2023/09/19 08:25:14;;;;;;;0.80;0.80;;;;;;;;;;5082364;28;20227;-68
2023/09/19 08:27:40;;;;;;;0.90;0.80;;;;;;;;;;5082053;28;20298;-68
2023/09/19 08:30:07;;;;;;;1.33;0.90;;;;;;;;;;5082821;28;20222;-68
2023/09/19 08:32:33;;;;;;;2.13;0.90;;;;;;;;;;5082247;28;20227;-68
2023/09/19 08:34:59;;;;;;;2.05;0.90;;;;;;;;;;5082646;28;20227;-68
2023/09/19 08:37:27;;;;;;;0.82;0.82;;;;;;;;;;5082023;28;20208;-68
2023/09/19 08:39:54;;;;;;;1.92;1.00;;;;;;;;;;5082405;28;20207;-68
2023/09/19 08:42:21;;;;;;;2.40;1.20;;;;;;;;;;5082287;28;20227;-68
2023/09/19 08:44:47;;;;;;;1.77;0.90;;;;;;;;;;5082212;28;20212;-68
2023/09/19 08:47:16;;;;;;;1.60;1.15;;;;;;;;;;5081732;28;20235;-68
2023/09/19 08:49:54;;;;;;;1.88;0.98;;;;;;;;;;5083937;28;20210;-68
2023/09/19 08:52:23;;;;;;;2.75;0.90;;;;;;;;;;5086319;28;20307;-68
2023/09/19 08:54:52;;;;;;;3.83;0.70;;;;;;;;;;5086098;28;20321;-68
2023/09/19 08:57:21;;;;;;;1.25;0.95;;;;;;;;;;5085835;28;20236;-68
2023/09/19 08:59:49;;;;;;;0.95;0.90;;;;;;;;;;5086168;28;20241;-68
2023/09/19 09:02:17;;;;;;;1.95;1.05;;;;;;;;;;5085675;28;20207;-68
2023/09/19 09:04:43;;;;;;;1.65;0.70;;;;;;;;;;5085485;28;20766;-69
2023/09/19 09:07:12;;;;;;;1.05;0.80;;;;;;;;;;5085567;28;20779;-68
2023/09/19 09:09:42;;;;;;;1.75;0.90;;;;;;;;;;5085479;28;20535;-70
2023/09/19 09:12:12;;;;;;;1.63;0.90;;;;;;;;;;5085578;28;20672;-69
2023/09/19 09:14:38;;;;;;;1.55;0.90;;;;;;;;;;5085644;28;20685;-70
2023/09/19 09:17:05;;;;;;;1.48;0.90;;;;;;;;;;5085682;28;20269;-70
2023/09/19 09:19:31;;;;;;;3.15;1.00;;;;;;;;;;5086392;28;20200;-68
2023/09/19 09:22:06;;;;;;;3.03;0.80;;;;;;;;;;5085380;28;20345;-68
2023/09/19 09:24:33;;;;;;;2.35;1.10;;;;;;;;;;5085369;28;20207;-69
2023/09/19 09:27:00;;;;;;;1.73;0.88;;;;;;;;;;5085043;28;20742;-69
2023/09/19 09:29:46;;;;;;;0.90;0.90;;;;;;;;;;5084856;28;20219;-68
2023/09/19 09:32:22;;;;;;;4.97;1.00;;;;;;;;;;5085141;28;20234;-68
2023/09/19 09:34:49;;;;;;;0.63;0.63;;;;;;;;;;5085531;28;20230;-67
2023/09/19 09:37:17;;;;;;;0.82;0.82;;;;;;;;;;5085308;28;20211;-70
2023/09/19 09:39:51;;;;;;;2.20;0.80;;;;;;;;;;5085517;28;20688;-69
2023/09/19 09:42:31;;;;;;;0.60;0.60;;;;;;;;;;5084417;28;20208;-70
2023/09/19 09:45:12;;;;;;;3.70;0.88;;;;;;;;;;5084664;28;20724;-67
2023/09/19 09:47:41;;;;;;;0.90;0.90;;;;;;;;;;5078735;28;20207;-68
2023/09/19 09:50:17;;;;;;;3.25;0.90;;;;;;;;;;5084955;28;20210;-69
2023/09/19 09:52:47;;;;;;;2.72;0.85;;;;;;;;;;5085263;28;20211;-68
2023/09/19 09:55:13;;;;;;;0.75;0.75;;;;;;;;;;5085305;28;20612;-68
2023/09/19 09:57:41;;;;;;;1.20;1.10;;;;;;;;;;5084504;28;20238;-69
2023/09/19 10:00:20;;;;;;;2.15;0.85;;;;;;;;;;5084212;28;20294;-69
2023/09/19 10:02:46;;;;;;;1.83;1.00;;;;;;;;;;5084522;28;20208;-70
2023/09/19 10:05:20;;;;;;;1.30;1.05;;;;;;;;;;5084778;28;20234;-71
2023/09/19 10:07:49;;;;;;;3.78;1.00;;;;;;;;;;5084468;28;20207;-70
2023/09/19 10:10:21;;;;;;;0.80;0.80;;;;;;;;;;5084890;28;20723;-69
2023/09/19 10:12:48;;;;;;;1.15;0.85;;;;;;;;;;5084261;28;20212;-69
2023/09/19 10:15:16;;;;;;;0.82;0.82;;;;;;;;;;5084173;28;20223;-69
2023/09/19 10:17:44;;;;;;;1.67;1.10;;;;;;;;;;5083494;28;20230;-68
2023/09/19 10:20:22;;;;;;;0.85;0.85;;;;;;;;;;5084221;28;20405;-68
2023/09/19 10:22:56;;;;;;;2.83;1.02;;;;;;;;;;5084389;28;21039;-68
2023/09/19 10:25:25;;;;;;;1.63;0.85;;;;;;;;;;5083883;28;20218;-68
2023/09/19 10:27:53;;;;;;;2.35;1.00;;;;;;;;;;5084230;28;20214;-67
2023/09/19 10:30:21;;;;;;;1.60;0.88;;;;;;;;;;5083753;28;20215;-68
2023/09/19 10:32:48;;;;;;;1.05;1.00;;;;;;;;;;5083725;28;20223;-67
2023/09/19 10:35:15;;;;;;;0.80;0.75;;;;;;;;;;5084338;28;20231;-68
2023/09/19 10:37:43;;;;;;;1.92;1.05;;;;;;;;;;5084342;28;20218;-68
2023/09/19 10:40:12;;;;;;;1.65;1.10;;;;;;;;;;5084788;28;20293;-68
2023/09/19 10:42:39;;;;;;;1.13;1.02;;;;;;;;;;5083619;28;20216;-68
2023/09/19 10:45:12;;;;;;;0.90;0.90;;;;;;;;;;5083528;28;20764;-68
2023/09/19 10:47:40;;;;;;;0.75;0.75;;;;;;;;;;5083878;28;20588;-68
2023/09/19 10:50:12;;;;;;;1.33;0.93;;;;;;;;;;5084192;28;20235;-68
2023/09/19 10:52:42;;;;;;;1.20;1.00;;;;;;;;;;5084024;28;20207;-68
2023/09/19 10:55:10;;;;;;;3.33;1.00;;;;;;;;;;5083928;28;20259;-68
2023/09/19 10:57:36;;;;;;;2.20;1.00;;;;;;;;;;5083186;28;20672;-71
2023/09/19 11:00:21;;;;;;;1.58;1.10;;;;;;;;;;5083629;28;20208;-68
2023/09/19 11:03:04;;;;;;;1.00;1.00;;;;;;;;;;5083205;28;20211;-69
2023/09/19 11:05:32;;;;;;;4.03;1.08;;;;;;;;;;5083403;28;20591;-70
2023/09/19 11:07:59;;;;;;;2.60;1.00;;;;;;;;;;5083567;28;20199;-71
2023/09/19 11:10:44;;;;;;;0.82;0.80;;;;;;;;;;5083895;28;20723;-69
2023/09/19 11:13:25;;;;;;;1.15;1.00;;;;;;;;;;5083112;28;20207;-69
2023/09/19 11:16:12;;;;;;;2.38;0.90;;;;;;;;;;5083817;28;20330;-69
2023/09/19 11:18:55;;;;;;;2.25;1.00;;;;;;;;;;5084312;28;20207;-73
2023/09/19 11:21:51;;;;;;;1.48;0.90;;;;;;;;;;5083620;28;20604;-71
2023/09/19 11:24:31;;;;;;;1.30;1.20;;;;;;;;;;5083991;28;20260;-71
2023/09/19 11:27:13;;;;;;;1.65;0.80;;;;;;;;;;5083501;28;20234;-70
2023/09/19 11:29:40;;;;;;;0.80;0.80;;;;;;;;;;5076500;28;20214;-69
2023/09/19 11:32:07;;;;;;;1.10;1.08;;;;;;;;;;5083690;28;20211;-69
2023/09/19 11:34:50;;;;;;;1.00;0.85;;;;;;;;;;5067292;28;20553;-69
2023/09/19 11:37:34;;;;;;;1.67;0.80;;;;;;;;;;5052379;28;20219;-69
2023/09/19 11:40:15;;;;;;;0.60;0.60;;;;;;;;;;5045921;28;20680;-70
2023/09/19 11:42:45;;;;;;;1.25;0.82;;;;;;;;;;5055294;28;20314;-69
2023/09/19 11:45:30;;;;;;;0.93;0.93;;;;;;;;;;5054563;28;20716;-68
2023/09/19 11:47:57;;;;;;;0.77;0.77;;;;;;;;;;5058120;28;20290;-69
2023/09/19 11:50:26;;;;;;;0.70;0.70;;;;;;;;;;5060823;28;20585;-68
2023/09/19 11:52:53;;;;;;;1.05;0.80;;;;;;;;;;5053164;28;20216;-68
2023/09/19 11:55:21;;;;;;;0.93;0.80;;;;;;;;;;5052737;28;20232;-70
2023/09/19 11:57:50;;;;;;;1.63;1.08;;;;;;;;;;5052986;28;20212;-68
2023/09/19 12:00:18;;;;;;;0.80;0.80;;;;;;;;;;5054411;28;20221;-68
2023/09/19 12:02:46;;;;;;;1.60;0.80;;;;;;;;;;5044449;28;20216;-68
2023/09/19 12:05:12;;;;;;;1.75;0.70;;;;;;;;;;5052239;28;20225;-69
2023/09/19 12:07:47;;;;;;;3.80;0.80;;;;;;;;;;5047021;28;20216;-69
2023/09/19 12:10:16;;;;;;;2.88;0.77;;;;;;;;;;5057043;28;20269;-69
2023/09/19 12:12:47;;;;;;;1.33;0.95;;;;;;;;;;5047233;28;20217;-69
2023/09/19 12:15:14;;;;;;;0.75;0.68;;;;;;;;;;5056209;28;20735;-69
2023/09/19 12:17:42;;;;;;;2.88;1.10;;;;;;;;;;5057575;28;20279;-70
2023/09/19 12:20:12;;;;;;;2.67;1.10;;;;;;;;;;5060093;28;20208;-69
2023/09/19 12:22:43;;;;;;;1.02;0.90;;;;;;;;;;5060015;28;20650;-69
2023/09/19 12:25:11;;;;;;;1.65;0.80;;;;;;;;;;5059621;28;20305;-69
2023/09/19 12:27:43;;;;;;;1.88;0.90;;;;;;;;;;5057608;28;20299;-69
2023/09/19 12:30:10;;;;;;;0.68;0.68;;;;;;;;;;5051311;28;20587;-69
2023/09/19 12:32:37;;;;;;;1.65;0.90;;;;;;;;;;5047586;28;20208;-69
2023/09/19 12:35:07;;;;;;;0.73;0.70;;;;;;;;;;5058710;28;20220;-69
2023/09/19 12:37:36;;;;;;;0.93;0.80;;;;;;;;;;5053427;28;20730;-69
2023/09/19 12:40:14;;;;;;;0.70;0.70;;;;;;;;;;5056106;28;20250;-69
2023/09/19 12:42:43;;;;;;;1.15;0.60;;;;;;;;;;5051062;28;20372;-69
2023/09/19 12:45:09;;;;;;;1.20;0.80;;;;;;;;;;5048670;28;20339;-69
2023/09/19 12:47:36;;;;;;;1.15;0.90;;;;;;;;;;5035933;28;20312;-69
2023/09/19 12:50:13;;;;;;;1.05;0.60;;;;;;;;;;5040458;28;20227;-70
2023/09/19 12:52:40;;;;;;;1.92;0.90;;;;;;;;;;5037400;28;20209;-69
2023/09/19 12:55:07;;;;;;;0.55;0.55;;;;;;;;;;5044106;28;20610;-69
2023/09/19 12:57:34;;;;;;;1.15;0.70;;;;;;;;;;5042090;28;20339;-69
2023/09/19 13:00:02;;;;;;;0.85;0.70;;;;;;;;;;5037856;28;20292;-69
2023/09/19 13:02:29;;;;;;;3.28;0.90;;;;;;;;;;5032961;28;20307;-69
2023/09/19 13:04:56;;;;;;;2.42;0.75;;;;;;;;;;5039638;28;20221;-69
2023/09/19 13:07:43;;;;;;;1.42;0.73;;;;;;;;;;5040333;28;20529;-69
2023/09/19 13:10:10;;;;;;;0.95;0.85;;;;;;;;;;5038903;28;20211;-69
2023/09/19 13:12:38;;;;;;;3.47;0.80;;;;;;;;;;5036394;28;20295;-69
2023/09/19 13:15:13;;;;;;;0.75;0.70;;;;;;;;;;5041442;28;21249;-70
2023/09/19 13:17:43;;;;;;;1.50;0.68;;;;;;;;;;5026061;28;20205;-69
2023/09/19 13:20:24;;;;;;;2.03;0.80;;;;;;;;;;5037577;28;20512;-69
2023/09/19 13:22:53;;;;;;;0.80;0.73;;;;;;;;;;5042982;28;20213;-69
2023/09/19 13:25:20;;;;;;;1.05;1.00;;;;;;;;;;5044776;28;20554;-68
2023/09/19 13:27:48;;;;;;;1.17;0.70;;;;;;;;;;5045041;28;20230;-68
2023/09/19 13:30:15;;;;;;;2.85;0.70;;;;;;;;;;5043574;28;20204;-70
2023/09/19 13:32:43;;;;;;;1.08;1.00;;;;;;;;;;5037540;28;20587;-70
2023/09/19 13:35:10;;;;;;;0.88;0.80;;;;;;;;;;5042948;28;20224;-70
2023/09/19 13:37:40;;;;;;;2.58;0.75;;;;;;;;;;5034985;28;20220;-69
2023/09/19 13:40:07;;;;;;;2.63;0.60;;;;;;;;;;5034934;28;20239;-69
2023/09/19 13:42:34;;;;;;;1.15;0.93;;;;;;;;;;5033593;28;20613;-71
2023/09/19 13:45:00;;;;;;;0.98;0.77;;;;;;;;;;5029115;28;20758;-73
2023/09/19 13:47:28;;;;;;;2.67;1.15;;;;;;;;;;5039706;28;20201;-73
2023/09/19 13:49:54;;;;;;;1.77;0.80;;;;;;;;;;5043006;28;20213;-69
2023/09/19 13:52:21;;;;;;;0.88;0.88;;;;;;;;;;5032519;28;20209;-73
2023/09/19 13:54:48;;;;;;;1.08;0.68;;;;;;;;;;5041222;28;20228;-70
2023/09/19 13:57:14;;;;;;;1.30;0.82;;;;;;;;;;5035281;28;20682;-70
2023/09/19 13:59:40;;;;;;;1.48;0.80;;;;;;;;;;5037544;28;20204;-70
2023/09/19 14:02:07;;;;;;;2.33;0.80;;;;;;;;;;5031204;28;20208;-70
2023/09/19 14:04:35;;;;;;;2.10;0.65;;;;;;;;;;5043479;28;20213;-70
2023/09/19 14:07:01;;;;;;;0.98;0.90;;;;;;;;;;5039725;28;20564;-70
2023/09/19 14:09:27;;;;;;;0.68;0.57;;;;;;;;;;5045725;28;20205;-70
2023/09/19 14:11:54;;;;;;;1.00;0.80;;;;;;;;;;5039430;28;20725;-70
2023/09/19 14:14:20;;;;;;;1.38;1.02;;;;;;;;;;5039783;28;20213;-70
2023/09/19 14:16:47;;;;;;;0.90;0.90;;;;;;;;;;5041263;28;20417;-70
2023/09/19 14:19:13;;;;;;;0.80;0.80;;;;;;;;;;5045665;28;20203;-70
2023/09/19 14:21:41;;;;;;;1.52;1.08;;;;;;;;;;5045945;28;20209;-70
2023/09/19 14:24:09;;;;;;;1.10;0.90;;;;;;;;;;5042868;28;20193;-70
2023/09/19 14:26:35;;;;;;;0.80;0.80;;;;;;;;;;5038813;28;20221;-71
2023/09/19 14:29:01;;;;;;;1.02;0.93;;;;;;;;;;5035417;28;20205;-70
2023/09/19 14:31:28;;;;;;;0.70;0.65;;;;;;;;;;5045776;28;20209;-70
2023/09/19 14:33:54;;;;;;;0.70;0.70;;;;;;;;;;5034387;28;20752;-70
2023/09/19 14:36:21;;;;;;;2.30;0.80;;;;;;;;;;5045479;28;20587;-70
2023/09/19 14:38:53;;;;;;;1.10;0.80;;;;;;;;;;5043932;28;20207;-68
2023/09/19 14:41:20;;;;;;;0.55;0.55;;;;;;;;;;5040156;28;20212;-70
2023/09/19 14:43:46;;;;;;;1.13;0.80;;;;;;;;;;5033519;28;20209;-70
2023/09/19 14:46:14;;;;;;;1.27;0.70;;;;;;;;;;5045336;28;20219;-70
2023/09/19 14:48:40;;;;;;;2.67;0.75;;;;;;;;;;5045199;28;20213;-70
2023/09/19 14:51:08;;;;;;;1.38;0.85;;;;;;;;;;5043038;28;20219;-70
2023/09/19 14:53:34;;;;;;;0.98;0.82;;;;;;;;;;5044950;28;20205;-70
2023/09/19 14:56:03;;;;;;;2.15;0.77;;;;;;;;;;5044816;28;20731;-70